Time;durP1;ratioP1;P1;durP2;ratioP2;P2;SDS_P1;SDS_P2;PMS_P1;PMS_P2;Temp;Humidity;BMP_temperature;BMP_pressure;BME280_temperature;BME280_humidity;BME280_pressure;Samples;Min_cycle;Max_cycle;Signal;HPM_P1;HPM_P2
2023/10/15 03:00:59;;;;;;;2.00;0.90;;;21.50;48.90;;;;;;5620080;23;45892;-81
2023/10/15 03:03:35;;;;;;;1.80;0.80;;;21.50;48.90;;;;;;4875956;28;46499;-81
2023/10/15 03:06:02;;;;;;;2.67;1.10;;;21.40;48.80;;;;;;4882471;28;45240;-81
2023/10/15 03:08:32;;;;;;;2.08;0.80;;;21.40;48.80;;;;;;4887395;28;45276;-81
2023/10/15 03:11:07;;;;;;;1.95;1.00;;;21.40;48.80;;;;;;4880101;28;45466;-82
2023/10/15 03:13:33;;;;;;;2.55;1.10;;;21.50;48.80;;;;;;4864564;29;45631;-82
2023/10/15 03:16:07;;;;;;;1.40;0.87;;;21.40;48.70;;;;;;4827598;28;45450;-83
2023/10/15 03:18:34;;;;;;;2.25;1.20;;;21.40;48.70;;;;;;4842005;28;45516;-81
2023/10/15 03:21:20;;;;;;;2.37;1.10;;;21.40;48.70;;;;;;4882464;28;45589;-81
2023/10/15 03:23:49;;;;;;;1.75;0.90;;;21.40;48.70;;;;;;4851746;28;46064;-81
2023/10/15 03:26:17;;;;;;;2.38;1.00;;;21.40;48.70;;;;;;4833690;28;45617;-82
2023/10/15 03:28:46;;;;;;;1.52;0.82;;;21.40;48.70;;;;;;4841875;28;44721;-81
2023/10/15 03:31:14;;;;;;;1.60;0.90;;;21.40;48.70;;;;;;4842170;28;44956;-81
2023/10/15 03:33:50;;;;;;;2.83;1.17;;;21.40;48.60;;;;;;4849800;28;46178;-81
2023/10/15 03:36:17;;;;;;;2.22;0.98;;;21.40;48.70;;;;;;4836488;28;45009;-81
2023/10/15 03:38:47;;;;;;;2.30;0.98;;;21.40;48.60;;;;;;4869137;28;45560;-81
2023/10/15 03:41:21;;;;;;;3.30;1.08;;;21.40;48.60;;;;;;4847097;28;45716;-81
2023/10/15 03:43:48;;;;;;;2.00;0.77;;;21.40;48.60;;;;;;4853780;28;45683;-82
2023/10/15 03:46:19;;;;;;;2.00;0.80;;;21.40;48.60;;;;;;4857787;28;45514;-81
2023/10/15 03:48:48;;;;;;;2.63;1.00;;;21.40;48.60;;;;;;4881560;29;45655;-81
2023/10/15 03:51:20;;;;;;;2.88;1.10;;;21.40;48.60;;;;;;4861638;28;45272;-81
2023/10/15 03:53:49;;;;;;;2.42;1.13;;;21.40;48.50;;;;;;4844010;29;46093;-80
2023/10/15 03:56:18;;;;;;;1.92;0.80;;;21.40;48.50;;;;;;4832811;28;45256;-81
2023/10/15 03:58:44;;;;;;;2.30;1.00;;;21.40;48.50;;;;;;4852699;29;45316;-81
2023/10/15 04:01:20;;;;;;;1.73;0.90;;;21.40;48.50;;;;;;4855398;28;46851;-81
2023/10/15 04:03:49;;;;;;;1.92;0.93;;;21.40;48.50;;;;;;4884757;28;45514;-81
2023/10/15 04:06:19;;;;;;;2.70;1.00;;;21.40;48.50;;;;;;4849876;28;45531;-82
2023/10/15 04:11:44;;;;;;;2.35;0.90;;;21.40;48.50;;;;;;4863364;28;45198;-81
2023/10/15 04:14:34;;;;;;;2.42;1.00;;;21.40;48.50;;;;;;4898838;28;45775;-82
2023/10/15 04:17:00;;;;;;;2.55;1.00;;;21.40;48.50;;;;;;4883269;28;45301;-80
2023/10/15 04:19:27;;;;;;;3.00;0.90;;;21.40;48.40;;;;;;4833507;28;45590;-82
2023/10/15 04:21:59;;;;;;;3.13;1.05;;;21.40;48.40;;;;;;4859462;28;45290;-80
2023/10/15 04:24:36;;;;;;;2.72;1.02;;;21.30;48.40;;;;;;4855176;28;46608;-82
2023/10/15 04:27:03;;;;;;;1.73;0.93;;;21.30;48.30;;;;;;4863606;28;45273;-81
2023/10/15 04:29:30;;;;;;;2.20;1.00;;;21.40;48.40;;;;;;4855992;28;45136;-80
2023/10/15 04:32:09;;;;;;;2.13;1.17;;;21.30;48.30;;;;;;4857331;28;44985;-81
2023/10/15 04:34:37;;;;;;;2.97;0.93;;;21.30;48.30;;;;;;4845910;28;47147;-81
2023/10/15 04:37:16;;;;;;;3.33;1.20;;;21.30;48.30;;;;;;4852789;28;45615;-81
2023/10/15 04:39:52;;;;;;;1.90;1.00;;;21.30;48.30;;;;;;4871739;28;45362;-81
2023/10/15 04:42:22;;;;;;;3.28;0.82;;;21.30;48.30;;;;;;4864625;28;44959;-81
2023/10/15 04:44:53;;;;;;;1.70;0.88;;;21.30;48.30;;;;;;4862289;28;45206;-81
2023/10/15 04:47:36;;;;;;;2.70;1.08;;;21.30;48.30;;;;;;4856634;28;45518;-81
2023/10/15 04:50:14;;;;;;;1.85;1.02;;;21.30;48.30;;;;;;4872524;28;45206;-82
2023/10/15 04:52:44;;;;;;;3.33;1.05;;;21.30;48.30;;;;;;4861920;28;45527;-82
2023/10/15 04:55:13;;;;;;;1.98;0.90;;;21.30;48.30;;;;;;4863451;28;45458;-81
2023/10/15 04:57:39;;;;;;;1.80;0.93;;;21.30;48.20;;;;;;4844924;28;45445;-81
2023/10/15 05:00:25;;;;;;;3.03;1.10;;;21.30;48.20;;;;;;4861578;28;45313;-83
2023/10/15 05:02:52;;;;;;;1.63;0.88;;;21.30;48.20;;;;;;4863289;28;46010;-80
2023/10/15 05:05:18;;;;;;;2.10;1.00;;;21.30;48.20;;;;;;4832167;28;46495;-81
2023/10/15 05:07:44;;;;;;;2.45;1.00;;;21.30;48.20;;;;;;4885136;28;45368;-81
2023/10/15 05:10:10;;;;;;;1.33;0.88;;;21.30;48.20;;;;;;4877007;28;45243;-81
2023/10/15 05:12:36;;;;;;;2.13;1.10;;;21.30;48.20;;;;;;4858852;28;45587;-81
2023/10/15 05:15:13;;;;;;;1.97;1.00;;;21.30;48.20;;;;;;4883302;28;45558;-81
2023/10/15 05:17:43;;;;;;;2.08;0.95;;;21.30;48.20;;;;;;4847026;28;45545;-81
2023/10/15 05:20:13;;;;;;;1.80;0.90;;;21.30;48.20;;;;;;4829977;28;45480;-80
2023/10/15 05:22:41;;;;;;;2.90;1.10;;;21.30;48.20;;;;;;4879791;28;45680;-82
2023/10/15 05:25:17;;;;;;;3.70;0.93;;;21.30;48.20;;;;;;4832747;28;45606;-81
2023/10/15 05:27:54;;;;;;;2.40;1.07;;;21.30;48.20;;;;;;4863252;28;45521;-81
2023/10/15 05:30:21;;;;;;;1.80;0.80;;;21.30;48.10;;;;;;4842193;28;45166;-81
2023/10/15 05:32:50;;;;;;;1.77;0.98;;;21.30;48.20;;;;;;4830094;28;45542;-81
2023/10/15 05:35:17;;;;;;;1.98;0.90;;;21.20;48.10;;;;;;4864045;28;45367;-82
2023/10/15 05:37:47;;;;;;;2.53;1.10;;;21.30;48.10;;;;;;4867206;28;45281;-80
2023/10/15 05:40:13;;;;;;;1.97;1.00;;;21.30;48.10;;;;;;4858358;28;45385;-80
2023/10/15 05:42:38;;;;;;;2.25;0.90;;;21.30;48.20;;;;;;4849889;28;45630;-81
2023/10/15 05:45:06;;;;;;;1.63;0.85;;;21.30;48.10;;;;;;4852174;28;45982;-81
2023/10/15 05:47:33;;;;;;;1.83;0.97;;;21.20;48.00;;;;;;4861102;28;45504;-80
2023/10/15 05:49:59;;;;;;;2.60;1.00;;;21.20;48.00;;;;;;4853926;28;45828;-80
2023/10/15 05:52:25;;;;;;;2.25;0.90;;;21.30;48.10;;;;;;4835718;28;45514;-81
2023/10/15 05:54:53;;;;;;;1.80;1.00;;;21.20;48.00;;;;;;4859492;28;46413;-82
2023/10/15 05:57:22;;;;;;;1.98;1.00;;;21.20;48.00;;;;;;4854708;28;45039;-81
2023/10/15 05:59:49;;;;;;;2.30;1.10;;;21.20;48.00;;;;;;4874777;28;45593;-81
2023/10/15 06:02:15;;;;;;;2.03;0.73;;;21.20;48.10;;;;;;4830456;28;45468;-81
2023/10/15 06:04:42;;;;;;;1.90;1.00;;;21.20;48.00;;;;;;4825829;28;46295;-81
2023/10/15 06:07:08;;;;;;;1.60;0.80;;;21.20;48.00;;;;;;4854202;28;45583;-81
2023/10/15 06:09:36;;;;;;;2.78;1.20;;;21.20;48.00;;;;;;4873805;28;45402;-80
2023/10/15 06:12:03;;;;;;;1.77;1.00;;;21.30;48.10;;;;;;4848478;28;45505;-80
2023/10/15 06:14:28;;;;;;;2.00;0.90;;;21.20;48.00;;;;;;4837404;28;45772;-80
2023/10/15 06:16:57;;;;;;;2.20;1.00;;;21.20;48.00;;;;;;4850342;28;45251;-80
2023/10/15 06:19:24;;;;;;;1.60;0.80;;;21.20;48.00;;;;;;4841726;28;45528;-80
2023/10/15 06:21:50;;;;;;;2.53;1.30;;;21.20;48.00;;;;;;4854694;28;45581;-80
2023/10/15 06:24:16;;;;;;;1.73;0.90;;;21.20;48.00;;;;;;4846866;28;47448;-80
2023/10/15 06:26:42;;;;;;;1.83;1.00;;;21.20;48.00;;;;;;4823735;28;46727;-81
2023/10/15 06:29:09;;;;;;;2.20;0.95;;;21.20;48.00;;;;;;4862276;28;45306;-81
2023/10/15 06:31:36;;;;;;;2.10;1.00;;;21.10;47.90;;;;;;4868037;28;45089;-83
2023/10/15 06:34:02;;;;;;;2.17;1.08;;;21.20;48.00;;;;;;4859183;28;46038;-82
2023/10/15 06:36:27;;;;;;;2.80;1.07;;;21.20;48.00;;;;;;4872947;28;45225;-82
2023/10/15 06:38:56;;;;;;;1.95;0.90;;;21.20;48.00;;;;;;4863843;28;44686;-79
2023/10/15 06:41:26;;;;;;;2.55;0.98;;;21.20;48.00;;;;;;4887034;28;45367;-80
2023/10/15 06:43:52;;;;;;;2.55;0.90;;;21.20;47.90;;;;;;4874371;28;46387;-80
2023/10/15 06:46:18;;;;;;;2.65;1.10;;;21.20;48.00;;;;;;4868680;28;45150;-82
2023/10/15 06:48:44;;;;;;;1.52;0.90;;;21.20;47.90;;;;;;4892683;28;45161;-80
2023/10/15 06:51:10;;;;;;;1.70;0.90;;;21.20;47.90;;;;;;4890128;28;45832;-80
2023/10/15 06:53:36;;;;;;;1.85;0.90;;;21.20;47.90;;;;;;4876587;28;45426;-81
2023/10/15 06:56:06;;;;;;;3.33;1.20;;;21.20;47.90;;;;;;4870141;28;45941;-80
2023/10/15 06:58:38;;;;;;;2.50;1.10;;;21.20;47.90;;;;;;4879184;28;45431;-80
2023/10/15 07:01:06;;;;;;;2.72;1.10;;;21.20;48.00;;;;;;4868152;28;45493;-80
2023/10/15 07:03:33;;;;;;;2.33;1.17;;;21.10;47.90;;;;;;4875080;28;45813;-80
2023/10/15 07:05:59;;;;;;;1.83;0.95;;;21.10;47.90;;;;;;4859046;28;45383;-80
2023/10/15 07:08:29;;;;;;;2.75;1.20;;;21.10;47.90;;;;;;4846852;29;44708;-80
2023/10/15 07:10:55;;;;;;;2.42;1.00;;;21.10;47.90;;;;;;4875339;28;45462;-80
2023/10/15 07:13:21;;;;;;;2.90;1.30;;;21.10;47.90;;;;;;4876157;29;46472;-81
2023/10/15 07:15:50;;;;;;;2.20;1.10;;;21.10;47.90;;;;;;4854891;28;45241;-80
2023/10/15 07:18:16;;;;;;;2.78;1.30;;;21.10;47.90;;;;;;4842682;28;45652;-79
2023/10/15 07:20:41;;;;;;;2.57;1.10;;;21.20;47.90;;;;;;4839083;28;45305;-80
2023/10/15 07:23:07;;;;;;;2.00;0.97;;;21.20;47.90;;;;;;4844227;28;46478;-79
2023/10/15 07:25:33;;;;;;;2.25;1.30;;;21.10;47.90;;;;;;4858128;28;45416;-80
2023/10/15 07:28:01;;;;;;;2.17;1.13;;;21.10;47.80;;;;;;4893452;28;45795;-80
2023/10/15 07:30:30;;;;;;;1.63;0.93;;;21.20;47.90;;;;;;4854084;28;45684;-79
2023/10/15 07:32:59;;;;;;;2.17;0.93;;;21.10;47.80;;;;;;4827722;28;46832;-80
2023/10/15 07:35:27;;;;;;;2.95;1.00;;;21.20;47.90;;;;;;4855726;28;45437;-80
2023/10/15 07:37:56;;;;;;;2.90;1.27;;;21.20;47.80;;;;;;4861086;28;45655;-81
2023/10/15 07:40:22;;;;;;;2.85;1.17;;;21.10;47.80;;;;;;4843520;28;46270;-81
2023/10/15 07:42:52;;;;;;;2.88;1.40;;;21.10;47.80;;;;;;4874529;28;45315;-81
2023/10/15 07:45:19;;;;;;;2.63;1.40;;;21.10;47.80;;;;;;4856493;28;46741;-82
2023/10/15 07:47:46;;;;;;;2.57;1.10;;;21.10;47.80;;;;;;4843962;28;45034;-80
2023/10/15 07:50:23;;;;;;;2.90;1.30;;;21.10;47.80;;;;;;4842516;28;45789;-80
2023/10/15 07:52:49;;;;;;;3.35;1.10;;;21.10;47.80;;;;;;4874445;28;45362;-80
2023/10/15 07:55:16;;;;;;;1.90;1.10;;;21.10;47.80;;;;;;4846778;28;45022;-80
2023/10/15 07:57:41;;;;;;;2.22;0.90;;;21.10;47.80;;;;;;4862420;28;44960;-80
2023/10/15 08:00:10;;;;;;;2.43;1.10;;;21.10;47.80;;;;;;4828922;28;45554;-80
2023/10/15 08:02:59;;;;;;;2.97;1.10;;;21.10;47.80;;;;;;4856522;28;46750;-80
2023/10/15 08:05:24;;;;;;;2.27;1.17;;;21.10;47.80;;;;;;4857254;28;45388;-80
2023/10/15 08:07:51;;;;;;;3.88;1.23;;;21.10;47.80;;;;;;4858331;28;45542;-80
2023/10/15 08:10:17;;;;;;;2.63;1.20;;;21.10;47.80;;;;;;4872949;28;45559;-80
2023/10/15 08:12:44;;;;;;;2.40;1.20;;;21.10;47.80;;;;;;4874316;28;45059;-81
2023/10/15 08:15:10;;;;;;;3.35;1.20;;;21.10;47.80;;;;;;4869239;28;45716;-80
2023/10/15 08:17:37;;;;;;;2.40;0.90;;;21.10;47.80;;;;;;4838099;28;45630;-82
2023/10/15 08:20:04;;;;;;;2.83;1.15;;;21.10;47.80;;;;;;4898470;28;45420;-80
2023/10/15 08:22:30;;;;;;;2.35;0.90;;;21.00;47.70;;;;;;4849830;28;46608;-80
2023/10/15 08:24:55;;;;;;;2.30;0.87;;;21.00;47.70;;;;;;4845531;28;45984;-80
2023/10/15 08:27:22;;;;;;;2.80;1.00;;;21.10;47.80;;;;;;4855712;28;45490;-81
2023/10/15 08:29:47;;;;;;;2.30;1.00;;;21.10;47.80;;;;;;4889345;28;45115;-80
2023/10/15 08:32:20;;;;;;;2.20;1.00;;;21.10;47.80;;;;;;4852051;28;46414;-80
2023/10/15 08:34:46;;;;;;;3.08;1.30;;;21.00;47.70;;;;;;4875641;28;45560;-81
2023/10/15 08:37:12;;;;;;;2.33;1.10;;;21.10;47.80;;;;;;4881942;28;45510;-80
2023/10/15 08:39:40;;;;;;;1.92;1.00;;;21.10;47.70;;;;;;4857005;28;46092;-81
2023/10/15 08:42:08;;;;;;;2.13;0.82;;;21.00;47.70;;;;;;4840944;28;46034;-80
2023/10/15 08:44:34;;;;;;;2.97;1.30;;;21.10;47.80;;;;;;4860218;28;45056;-80
2023/10/15 08:47:01;;;;;;;2.40;1.17;;;21.10;47.80;;;;;;4883760;28;45429;-80
2023/10/15 08:49:26;;;;;;;2.70;1.10;;;21.00;47.70;;;;;;4845590;28;45582;-80
2023/10/15 08:51:52;;;;;;;2.85;1.20;;;21.00;47.60;;;;;;4822531;28;45964;-80
2023/10/15 08:54:25;;;;;;;3.05;1.20;;;21.10;47.70;;;;;;4858163;28;45515;-80
2023/10/15 08:56:54;;;;;;;2.20;1.02;;;21.10;47.70;;;;;;4870306;28;45777;-80
2023/10/15 08:59:21;;;;;;;2.00;1.10;;;21.10;47.70;;;;;;4862467;28;45486;-80
2023/10/15 09:01:50;;;;;;;3.78;1.38;;;21.00;47.60;;;;;;4848355;28;46345;-81
2023/10/15 09:04:15;;;;;;;1.90;1.00;;;21.00;47.70;;;;;;4877599;28;44945;-81
2023/10/15 09:06:41;;;;;;;1.63;0.93;;;21.00;47.60;;;;;;4851474;28;45263;-80
2023/10/15 09:09:07;;;;;;;2.05;0.98;;;21.10;47.70;;;;;;4857179;28;45697;-80
2023/10/15 09:11:35;;;;;;;2.65;1.00;;;21.00;47.60;;;;;;4870401;28;46141;-80
2023/10/15 09:14:02;;;;;;;2.03;1.03;;;21.00;47.60;;;;;;4827921;28;45003;-80
2023/10/15 09:16:29;;;;;;;2.42;1.20;;;21.10;47.70;;;;;;4850885;28;45443;-79
2023/10/15 09:18:55;;;;;;;2.85;1.00;;;21.00;47.60;;;;;;4858074;28;45201;-80
2023/10/15 09:21:24;;;;;;;1.70;1.00;;;21.10;47.70;;;;;;4870845;28;46222;-80
2023/10/15 09:23:50;;;;;;;3.13;1.17;;;21.00;47.60;;;;;;4857790;28;46257;-80
2023/10/15 09:26:16;;;;;;;1.88;0.90;;;21.00;47.60;;;;;;4837904;28;45405;-80
2023/10/15 09:28:42;;;;;;;2.70;1.00;;;21.00;47.60;;;;;;4844785;28;45949;-80
2023/10/15 09:31:11;;;;;;;1.70;0.80;;;21.00;47.60;;;;;;4866331;28;45551;-80
2023/10/15 09:33:37;;;;;;;2.17;0.90;;;21.10;47.70;;;;;;4845133;28;45369;-80
2023/10/15 09:36:05;;;;;;;2.08;1.02;;;21.00;47.60;;;;;;4854473;28;45873;-80
2023/10/15 09:38:32;;;;;;;2.93;1.07;;;21.10;47.80;;;;;;4863981;28;45221;-80
2023/10/15 09:40:59;;;;;;;3.53;1.27;;;21.10;47.60;;;;;;4884400;28;47433;-80
2023/10/15 09:43:26;;;;;;;3.88;1.52;;;21.10;47.60;;;;;;4871823;28;45395;-81
2023/10/15 09:45:55;;;;;;;3.20;1.23;;;21.00;47.50;;;;;;4878499;28;45555;-80
2023/10/15 09:48:23;;;;;;;4.95;1.58;;;21.00;47.50;;;;;;4858586;29;45255;-80
2023/10/15 09:50:51;;;;;;;3.30;1.10;;;21.00;47.50;;;;;;4851056;28;45348;-80
2023/10/15 09:53:17;;;;;;;3.92;1.30;;;21.00;47.50;;;;;;4861417;28;45292;-80
2023/10/15 09:55:45;;;;;;;4.30;1.33;;;21.10;47.60;;;;;;4888132;28;45387;-80
2023/10/15 09:58:11;;;;;;;4.03;1.33;;;21.00;47.50;;;;;;4873907;28;45831;-80
2023/10/15 10:00:46;;;;;;;4.73;1.33;;;21.00;47.50;;;;;;4847237;28;45905;-80
2023/10/15 10:03:47;;;;;;;4.13;1.50;;;21.00;47.50;;;;;;4859130;28;45673;-80
2023/10/15 10:06:37;;;;;;;4.03;1.50;;;21.00;47.50;;;;;;4868644;28;45331;-80
2023/10/15 10:09:21;;;;;;;2.53;1.10;;;21.00;47.50;;;;;;4891423;28;45082;-80
2023/10/15 10:12:05;;;;;;;4.22;1.50;;;21.00;47.50;;;;;;4866369;28;46468;-81
2023/10/15 10:14:58;;;;;;;4.30;1.52;;;21.00;47.50;;;;;;4892893;28;45369;-81
2023/10/15 10:17:25;;;;;;;3.65;1.50;;;21.00;47.50;;;;;;4866235;28;45960;-81
2023/10/15 10:19:52;;;;;;;3.53;1.37;;;21.00;47.50;;;;;;4872569;28;45277;-80
2023/10/15 10:22:25;;;;;;;3.60;1.47;;;21.00;47.50;;;;;;4870397;28;47042;-80
2023/10/15 10:24:52;;;;;;;4.13;1.38;;;21.00;47.50;;;;;;4881427;28;45494;-80
2023/10/15 10:27:21;;;;;;;5.25;1.60;;;21.00;47.50;;;;;;4827212;29;45065;-80
2023/10/15 10:29:51;;;;;;;3.83;1.50;;;21.00;47.50;;;;;;4862467;28;45612;-80
2023/10/15 10:32:17;;;;;;;4.25;1.35;;;21.00;47.50;;;;;;4838301;28;46205;-80
2023/10/15 10:34:45;;;;;;;3.80;1.23;;;21.00;47.50;;;;;;4846885;28;45710;-80
2023/10/15 10:37:21;;;;;;;3.47;1.45;;;21.00;47.50;;;;;;4871379;28;44910;-80
2023/10/15 10:39:48;;;;;;;2.50;1.17;;;21.00;47.50;;;;;;4875377;28;45312;-80
2023/10/15 10:42:24;;;;;;;4.38;1.40;;;21.00;47.40;;;;;;4872661;28;46691;-79
2023/10/15 10:44:50;;;;;;;4.23;1.50;;;21.00;47.50;;;;;;4875886;28;45667;-81
2023/10/15 10:47:21;;;;;;;2.83;1.20;;;21.10;47.50;;;;;;4854089;28;45622;-80
2023/10/15 10:50:19;;;;;;;3.28;1.25;;;21.00;47.40;;;;;;4841054;28;44729;-82
2023/10/15 10:52:46;;;;;;;3.05;1.20;;;21.00;47.40;;;;;;4860286;28;46892;-81
2023/10/15 10:55:30;;;;;;;3.85;1.48;;;21.00;47.50;;;;;;4828322;29;45336;-82
2023/10/15 10:57:56;;;;;;;3.38;1.38;;;21.00;47.40;;;;;;4874344;28;45461;-83
2023/10/15 11:00:22;;;;;;;2.95;1.40;;;21.00;47.40;;;;;;4870618;28;45631;-82
2023/10/15 11:02:51;;;;;;;2.55;1.30;;;21.00;47.40;;;;;;4843933;28;45905;-83
2023/10/15 11:05:17;;;;;;;4.13;1.50;;;21.00;47.40;;;;;;4874431;28;45230;-82
2023/10/15 11:07:46;;;;;;;3.80;1.45;;;21.00;47.40;;;;;;4858520;28;44934;-82
2023/10/15 11:10:12;;;;;;;2.67;1.20;;;21.00;47.40;;;;;;4873944;28;45377;-82
2023/10/15 11:12:39;;;;;;;3.38;1.15;;;21.00;47.40;;;;;;4873555;29;45743;-82
2023/10/15 11:15:08;;;;;;;3.63;1.30;;;21.00;47.40;;;;;;4873383;28;45256;-81
2023/10/15 11:17:37;;;;;;;3.88;1.40;;;21.00;47.40;;;;;;4842251;28;45283;-82
2023/10/15 11:20:16;;;;;;;4.07;1.40;;;21.00;47.40;;;;;;4843344;28;45506;-82
2023/10/15 11:22:41;;;;;;;2.45;1.20;;;21.00;47.40;;;;;;4845945;28;47485;-81
2023/10/15 11:25:14;;;;;;;2.10;0.90;;;21.00;47.30;;;;;;4841176;28;45439;-81
2023/10/15 11:27:39;;;;;;;3.28;1.30;;;21.00;47.30;;;;;;4876895;28;44811;-82
2023/10/15 11:30:08;;;;;;;2.93;1.30;;;21.00;47.30;;;;;;4841952;28;45715;-82
2023/10/15 11:32:34;;;;;;;3.78;1.30;;;21.00;47.40;;;;;;4871493;28;46831;-82
2023/10/15 11:35:00;;;;;;;2.33;1.10;;;21.00;47.30;;;;;;4880243;28;45539;-82
2023/10/15 11:37:26;;;;;;;2.55;1.20;;;21.00;47.30;;;;;;4855051;28;45536;-81
2023/10/15 11:39:53;;;;;;;2.70;1.00;;;21.00;47.30;;;;;;4875676;28;45541;-80
2023/10/15 11:42:19;;;;;;;2.80;1.10;;;21.00;47.30;;;;;;4826670;28;45311;-81
2023/10/15 11:44:45;;;;;;;2.75;1.10;;;21.00;47.30;;;;;;4847690;28;45402;-80
2023/10/15 11:47:24;;;;;;;3.38;1.20;;;21.00;47.20;;;;;;4849602;28;45265;-81
2023/10/15 11:49:59;;;;;;;3.40;1.30;;;21.00;47.20;;;;;;4858574;28;45468;-79
2023/10/15 11:52:26;;;;;;;3.97;1.30;;;21.00;47.20;;;;;;4853808;28;46369;-80
2023/10/15 11:54:54;;;;;;;2.60;0.97;;;21.00;47.20;;;;;;4843297;28;45491;-81
2023/10/15 11:57:26;;;;;;;2.47;1.10;;;21.00;47.20;;;;;;4842196;28;45478;-80
2023/10/15 11:59:52;;;;;;;4.70;1.30;;;21.00;47.20;;;;;;4861987;28;45814;-80
2023/10/15 12:02:18;;;;;;;3.60;1.23;;;21.00;47.10;;;;;;4848398;28;46276;-80
2023/10/15 12:04:44;;;;;;;2.83;1.20;;;21.00;47.10;;;;;;4876053;28;47721;-80
2023/10/15 12:07:16;;;;;;;3.97;1.10;;;21.00;47.10;;;;;;4871335;28;45698;-80
2023/10/15 12:10:14;;;;;;;4.00;1.20;;;21.00;47.10;;;;;;4858465;28;45393;-80
2023/10/15 12:12:41;;;;;;;3.20;1.13;;;21.00;47.10;;;;;;4887818;28;46309;-83
2023/10/15 12:15:09;;;;;;;3.15;1.27;;;21.00;47.00;;;;;;4855303;28;45592;-83
2023/10/15 12:17:36;;;;;;;1.73;0.75;;;20.90;46.90;;;;;;4856764;28;44690;-79
2023/10/15 12:20:13;;;;;;;4.10;1.33;;;21.00;47.00;;;;;;4890864;28;45539;-80
2023/10/15 12:22:39;;;;;;;3.72;1.30;;;21.00;47.00;;;;;;4894064;28;44973;-80
2023/10/15 12:25:06;;;;;;;2.30;0.90;;;21.00;47.00;;;;;;4884978;28;45280;-80
2023/10/15 12:27:32;;;;;;;2.58;0.82;;;21.00;47.00;;;;;;4844092;28;46096;-80
2023/10/15 12:30:03;;;;;;;2.03;1.10;;;21.00;46.90;;;;;;4891477;28;44719;-81
2023/10/15 12:32:29;;;;;;;2.47;1.08;;;21.00;46.90;;;;;;4875720;28;46204;-81
2023/10/15 12:34:55;;;;;;;2.60;0.95;;;20.90;46.90;;;;;;4879181;28;45251;-80
2023/10/15 12:37:24;;;;;;;2.35;0.90;;;21.00;46.90;;;;;;4845923;29;44960;-80
2023/10/15 12:39:51;;;;;;;2.53;1.10;;;21.00;46.90;;;;;;4858304;28;45207;-80
2023/10/15 12:42:21;;;;;;;2.10;1.10;;;20.90;46.80;;;;;;4863314;28;46387;-81
2023/10/15 12:44:47;;;;;;;1.92;0.90;;;20.90;46.80;;;;;;4847844;28;44946;-79
2023/10/15 12:47:13;;;;;;;2.70;1.20;;;20.90;46.80;;;;;;4843270;28;45379;-80
2023/10/15 12:49:39;;;;;;;2.47;0.90;;;20.90;46.80;;;;;;4863938;28;45267;-80
2023/10/15 12:52:05;;;;;;;2.08;0.90;;;20.90;46.80;;;;;;4874729;28;45463;-80
2023/10/15 12:54:33;;;;;;;2.13;0.90;;;21.00;46.90;;;;;;4835023;28;45258;-81
2023/10/15 12:56:59;;;;;;;2.80;0.85;;;20.90;46.80;;;;;;4861072;28;45342;-81
2023/10/15 12:59:25;;;;;;;2.80;0.85;;;21.00;46.90;;;;;;4869257;28;45293;-79
2023/10/15 13:01:52;;;;;;;2.80;0.90;;;21.00;46.90;;;;;;4848847;29;46362;-80
2023/10/15 13:04:21;;;;;;;2.13;0.77;;;20.90;46.80;;;;;;4846953;29;45676;-80
2023/10/15 13:06:48;;;;;;;3.67;0.80;;;20.90;46.80;;;;;;4829058;29;45674;-80
2023/10/15 13:09:19;;;;;;;2.70;1.00;;;20.90;46.80;;;;;;4866999;29;45642;-81
2023/10/15 13:11:48;;;;;;;2.75;1.10;;;21.00;46.80;;;;;;4858250;29;45327;-80
2023/10/15 13:14:14;;;;;;;1.90;0.70;;;20.90;46.80;;;;;;4828110;29;45247;-80
2023/10/15 13:16:40;;;;;;;2.15;0.90;;;20.90;46.70;;;;;;4857232;29;45199;-81
2023/10/15 13:19:06;;;;;;;2.55;0.98;;;20.90;46.70;;;;;;4846997;29;44898;-80
2023/10/15 13:21:33;;;;;;;2.40;0.85;;;20.90;46.70;;;;;;4874625;29;45862;-80
2023/10/15 13:23:59;;;;;;;1.65;0.75;;;20.90;46.70;;;;;;4820810;29;44695;-80
2023/10/15 13:26:25;;;;;;;2.05;0.90;;;20.90;46.80;;;;;;4813348;29;45356;-81
2023/10/15 13:28:51;;;;;;;2.37;0.87;;;20.90;46.80;;;;;;4838173;29;45029;-80
2023/10/15 13:31:17;;;;;;;1.77;0.85;;;20.90;46.70;;;;;;4870202;29;46789;-81
2023/10/15 13:33:43;;;;;;;1.90;0.90;;;21.00;47.40;;;;;;4860009;29;45393;-82
2023/10/15 13:36:13;;;;;;;1.93;0.80;;;20.90;46.70;;;;;;4878821;29;45633;-81
2023/10/15 13:38:40;;;;;;;1.67;0.70;;;20.90;46.70;;;;;;4839983;29;45277;-80
2023/10/15 13:41:06;;;;;;;2.10;0.77;;;20.90;46.70;;;;;;4843941;29;46262;-83
2023/10/15 13:43:32;;;;;;;1.50;0.60;;;21.00;46.80;;;;;;4846324;29;45898;-80
2023/10/15 13:45:57;;;;;;;2.53;0.80;;;20.90;46.60;;;;;;4858504;28;45170;-81
2023/10/15 13:48:23;;;;;;;1.40;0.55;;;20.90;46.60;;;;;;4820160;29;45252;-81
2023/10/15 13:50:49;;;;;;;1.70;0.90;;;20.90;46.70;;;;;;4843631;29;46224;-81
2023/10/15 13:53:15;;;;;;;1.45;0.70;;;20.90;46.60;;;;;;4845932;29;44691;-81
2023/10/15 13:55:41;;;;;;;1.83;0.50;;;20.90;46.40;;;;;;4831293;29;44789;-81
2023/10/15 13:58:07;;;;;;;2.38;0.90;;;20.90;46.50;;;;;;4851610;29;45222;-80
2023/10/15 14:00:35;;;;;;;0.90;0.60;;;20.90;46.40;;;;;;4857606;29;46885;-82
2023/10/15 14:03:00;;;;;;;1.58;0.70;;;20.90;46.40;;;;;;4859107;28;44965;-81
2023/10/15 14:05:32;;;;;;;1.65;0.68;;;20.90;46.50;;;;;;4844021;28;45462;-81
2023/10/15 14:07:59;;;;;;;1.10;0.63;;;20.90;46.50;;;;;;4864927;28;44937;-81
2023/10/15 14:10:25;;;;;;;1.45;0.77;;;20.90;46.40;;;;;;4861749;28;45521;-81
2023/10/15 14:12:51;;;;;;;1.85;0.80;;;20.90;46.40;;;;;;4866416;28;46174;-81
2023/10/15 14:15:17;;;;;;;0.97;0.50;;;20.90;46.40;;;;;;4844332;28;45519;-81
2023/10/15 14:17:43;;;;;;;1.10;0.60;;;20.90;46.40;;;;;;4834492;28;45333;-82
2023/10/15 14:20:14;;;;;;;1.30;0.60;;;20.90;46.30;;;;;;4845887;28;45760;-80
2023/10/15 14:22:41;;;;;;;1.30;0.50;;;20.90;46.40;;;;;;4864932;28;45518;-81
2023/10/15 14:25:08;;;;;;;2.80;0.57;;;20.90;46.30;;;;;;4876635;28;46024;-81
2023/10/15 14:27:35;;;;;;;1.73;0.70;;;20.90;46.30;;;;;;4897238;28;45451;-81
2023/10/15 14:30:01;;;;;;;1.33;0.55;;;20.90;46.30;;;;;;4863251;28;46343;-81
2023/10/15 14:32:27;;;;;;;1.38;0.68;;;20.90;46.40;;;;;;4839593;28;45215;-81
2023/10/15 14:34:53;;;;;;;0.90;0.50;;;20.90;46.30;;;;;;4854629;28;45157;-80
2023/10/15 14:37:19;;;;;;;1.48;0.68;;;20.90;46.30;;;;;;4841220;28;44681;-81
2023/10/15 14:39:45;;;;;;;1.25;0.60;;;20.90;46.30;;;;;;4850662;28;45904;-80
2023/10/15 14:42:11;;;;;;;0.95;0.50;;;20.90;46.30;;;;;;4843693;28;44857;-80
2023/10/15 14:44:37;;;;;;;1.33;0.55;;;20.90;46.30;;;;;;4848851;28;45276;-81
2023/10/15 14:47:03;;;;;;;1.15;0.60;;;21.00;46.30;;;;;;4860701;28;45181;-81
2023/10/15 14:49:29;;;;;;;1.08;0.50;;;20.90;46.30;;;;;;4875245;28;46043;-81
2023/10/15 14:51:55;;;;;;;0.85;0.50;;;20.90;46.30;;;;;;4882745;28;45125;-81
2023/10/15 14:54:21;;;;;;;1.10;0.60;;;20.90;46.30;;;;;;4884094;28;44759;-82
2023/10/15 14:56:47;;;;;;;1.60;0.60;;;20.90;46.30;;;;;;4868272;28;45344;-80
2023/10/15 14:59:13;;;;;;;1.70;0.70;;;20.90;46.40;;;;;;4882722;28;45545;-80
2023/10/15 15:01:39;;;;;;;0.98;0.40;;;20.90;46.30;;;;;;4849049;28;45386;-81
2023/10/15 15:04:06;;;;;;;0.93;0.55;;;20.90;46.30;;;;;;4853854;28;45522;-81
2023/10/15 15:06:37;;;;;;;1.33;0.57;;;20.90;46.30;;;;;;4869191;28;45018;-81
2023/10/15 15:09:03;;;;;;;1.35;0.70;;;20.90;46.30;;;;;;4868635;28;45509;-81
2023/10/15 15:11:32;;;;;;;1.15;0.60;;;20.90;46.30;;;;;;4861349;28;45670;-80
2023/10/15 15:13:59;;;;;;;1.63;0.70;;;20.90;46.30;;;;;;4868111;28;45281;-81
2023/10/15 15:16:25;;;;;;;0.98;0.63;;;20.90;46.30;;;;;;4862693;28;45915;-81
2023/10/15 15:18:51;;;;;;;2.00;0.80;;;20.90;46.30;;;;;;4861159;28;46547;-81
2023/10/15 15:21:17;;;;;;;1.52;0.80;;;20.90;46.30;;;;;;4866371;28;45406;-80
2023/10/15 15:23:43;;;;;;;2.40;0.70;;;20.90;46.30;;;;;;4872884;28;45206;-81
2023/10/15 15:26:08;;;;;;;2.20;0.73;;;20.90;46.20;;;;;;4885750;28;45441;-81
2023/10/15 15:28:37;;;;;;;1.50;0.57;;;20.90;46.20;;;;;;4855813;28;45508;-81
2023/10/15 15:31:06;;;;;;;1.00;0.68;;;20.90;46.20;;;;;;4868185;28;45524;-81
2023/10/15 15:33:32;;;;;;;1.27;0.52;;;20.90;46.20;;;;;;4866535;28;45340;-80
2023/10/15 15:35:58;;;;;;;1.45;0.68;;;20.90;46.20;;;;;;4834659;28;45569;-80
2023/10/15 15:38:24;;;;;;;1.20;0.70;;;20.90;46.20;;;;;;4853935;28;47027;-80
2023/10/15 15:41:13;;;;;;;1.00;0.60;;;20.90;46.20;;;;;;4866443;28;45739;-81
2023/10/15 15:43:39;;;;;;;1.23;0.70;;;20.90;46.20;;;;;;4864959;28;46314;-81
2023/10/15 15:46:10;;;;;;;2.60;0.70;;;20.90;46.20;;;;;;4866295;28;45380;-81
2023/10/15 15:48:35;;;;;;;1.13;0.52;;;20.90;46.10;;;;;;4844887;28;45840;-81
2023/10/15 15:51:04;;;;;;;1.05;0.50;;;20.90;46.10;;;;;;4851443;28;46167;-81
2023/10/15 15:53:31;;;;;;;1.02;0.60;;;20.90;46.10;;;;;;4878733;28;46351;-81
2023/10/15 15:55:57;;;;;;;1.13;0.60;;;20.90;46.10;;;;;;4876065;28;45437;-81
2023/10/15 15:58:27;;;;;;;0.88;0.50;;;20.90;46.10;;;;;;4870459;28;45333;-81